sensor_id;sensor_type;location;lat;lon;timestamp;P1;durP1;ratioP1;P2;durP2;ratioP2
17850;SDS011;9051;51.548;14.348;2022-10-26T00:00:28;6.53;;;3.30;;
17850;SDS011;9051;51.548;14.348;2022-10-26T00:03:00;4.03;;;3.20;;
17850;SDS011;9051;51.548;14.348;2022-10-26T00:05:32;6.53;;;4.10;;
17850;SDS011;9051;51.548;14.348;2022-10-26T00:08:05;5.87;;;3.47;;
17850;SDS011;9051;51.548;14.348;2022-10-26T00:10:37;5.80;;;3.80;;
17850;SDS011;9051;51.548;14.348;2022-10-26T00:13:10;3.80;;;2.97;;
17850;SDS011;9051;51.548;14.348;2022-10-26T00:15:44;3.77;;;2.80;;
17850;SDS011;9051;51.548;14.348;2022-10-26T00:18:16;4.03;;;3.00;;
17850;SDS011;9051;51.548;14.348;2022-10-26T00:20:48;4.70;;;2.73;;
17850;SDS011;9051;51.548;14.348;2022-10-26T00:23:20;4.53;;;3.00;;
17850;SDS011;9051;51.548;14.348;2022-10-26T00:25:52;4.33;;;2.87;;
17850;SDS011;9051;51.548;14.348;2022-10-26T00:28:25;3.00;;;2.70;;
17850;SDS011;9051;51.548;14.348;2022-10-26T00:31:00;3.70;;;2.90;;
17850;SDS011;9051;51.548;14.348;2022-10-26T00:33:32;2.80;;;2.60;;
17850;SDS011;9051;51.548;14.348;2022-10-26T00:36:05;4.37;;;3.10;;
17850;SDS011;9051;51.548;14.348;2022-10-26T00:38:38;3.57;;;2.60;;
17850;SDS011;9051;51.548;14.348;2022-10-26T00:41:15;4.23;;;2.50;;
17850;SDS011;9051;51.548;14.348;2022-10-26T00:43:48;3.67;;;2.50;;
17850;SDS011;9051;51.548;14.348;2022-10-26T00:46:22;2.77;;;2.57;;
17850;SDS011;9051;51.548;14.348;2022-10-26T00:48:57;2.80;;;2.60;;
17850;SDS011;9051;51.548;14.348;2022-10-26T00:51:33;4.40;;;2.50;;
17850;SDS011;9051;51.548;14.348;2022-10-26T00:54:09;2.40;;;2.20;;
17850;SDS011;9051;51.548;14.348;2022-10-26T00:56:44;3.63;;;2.40;;
17850;SDS011;9051;51.548;14.348;2022-10-26T00:59:18;2.60;;;2.33;;
17850;SDS011;9051;51.548;14.348;2022-10-26T01:01:53;2.80;;;2.00;;
17850;SDS011;9051;51.548;14.348;2022-10-26T01:04:25;2.50;;;2.30;;
17850;SDS011;9051;51.548;14.348;2022-10-26T01:06:57;2.93;;;2.37;;
17850;SDS011;9051;51.548;14.348;2022-10-26T01:09:30;2.40;;;2.20;;
17850;SDS011;9051;51.548;14.348;2022-10-26T01:12:03;2.37;;;2.17;;
17850;SDS011;9051;51.548;14.348;2022-10-26T01:14:35;2.70;;;2.50;;
17850;SDS011;9051;51.548;14.348;2022-10-26T01:17:13;2.50;;;2.30;;
17850;SDS011;9051;51.548;14.348;2022-10-26T01:19:59;2.50;;;2.20;;
17850;SDS011;9051;51.548;14.348;2022-10-26T01:22:56;3.13;;;2.50;;
17850;SDS011;9051;51.548;14.348;2022-10-26T01:25:38;3.53;;;2.27;;
17850;SDS011;9051;51.548;14.348;2022-10-26T01:28:19;3.03;;;2.33;;
17850;SDS011;9051;51.548;14.348;2022-10-26T01:31:03;2.70;;;2.50;;
17850;SDS011;9051;51.548;14.348;2022-10-26T01:33:40;2.93;;;2.30;;
17850;SDS011;9051;51.548;14.348;2022-10-26T01:36:18;2.93;;;2.50;;
17850;SDS011;9051;51.548;14.348;2022-10-26T01:38:57;2.13;;;1.93;;
17850;SDS011;9051;51.548;14.348;2022-10-26T01:41:37;2.30;;;2.10;;
17850;SDS011;9051;51.548;14.348;2022-10-26T01:44:16;3.03;;;2.03;;
17850;SDS011;9051;51.548;14.348;2022-10-26T01:46:53;3.03;;;2.40;;
17850;SDS011;9051;51.548;14.348;2022-10-26T01:49:29;3.03;;;2.23;;
17850;SDS011;9051;51.548;14.348;2022-10-26T01:52:03;2.13;;;2.00;;
17850;SDS011;9051;51.548;14.348;2022-10-26T01:54:35;2.40;;;2.20;;
17850;SDS011;9051;51.548;14.348;2022-10-26T01:57:08;2.37;;;2.17;;
17850;SDS011;9051;51.548;14.348;2022-10-26T01:59:52;2.50;;;2.30;;
17850;SDS011;9051;51.548;14.348;2022-10-26T02:02:46;2.53;;;2.33;;
17850;SDS011;9051;51.548;14.348;2022-10-26T02:05:43;2.90;;;2.30;;
17850;SDS011;9051;51.548;14.348;2022-10-26T02:08:26;8.00;;;2.60;;
17850;SDS011;9051;51.548;14.348;2022-10-26T02:11:08;2.83;;;2.10;;
17850;SDS011;9051;51.548;14.348;2022-10-26T02:13:47;2.40;;;2.20;;
17850;SDS011;9051;51.548;14.348;2022-10-26T02:16:27;2.83;;;2.30;;
17850;SDS011;9051;51.548;14.348;2022-10-26T02:19:12;3.00;;;2.50;;
17850;SDS011;9051;51.548;14.348;2022-10-26T02:21:53;3.23;;;2.53;;
17850;SDS011;9051;51.548;14.348;2022-10-26T02:24:33;6.87;;;2.40;;
17850;SDS011;9051;51.548;14.348;2022-10-26T02:27:07;2.83;;;2.60;;
17850;SDS011;9051;51.548;14.348;2022-10-26T02:29:50;2.43;;;2.13;;
17850;SDS011;9051;51.548;14.348;2022-10-26T02:32:25;3.73;;;2.10;;
17850;SDS011;9051;51.548;14.348;2022-10-26T02:35:02;3.60;;;2.30;;
17850;SDS011;9051;51.548;14.348;2022-10-26T02:37:35;3.90;;;2.37;;
17850;SDS011;9051;51.548;14.348;2022-10-26T02:40:10;2.60;;;2.40;;
17850;SDS011;9051;51.548;14.348;2022-10-26T02:42:45;3.50;;;2.10;;
17850;SDS011;9051;51.548;14.348;2022-10-26T02:45:19;2.50;;;2.10;;
17850;SDS011;9051;51.548;14.348;2022-10-26T02:47:54;3.50;;;2.40;;
17850;SDS011;9051;51.548;14.348;2022-10-26T02:50:28;3.17;;;1.93;;
17850;SDS011;9051;51.548;14.348;2022-10-26T02:53:07;3.40;;;2.27;;
17850;SDS011;9051;51.548;14.348;2022-10-26T02:55:44;2.33;;;2.13;;
17850;SDS011;9051;51.548;14.348;2022-10-26T02:58:21;3.17;;;2.20;;
17850;SDS011;9051;51.548;14.348;2022-10-26T03:00:57;2.60;;;2.40;;
17850;SDS011;9051;51.548;14.348;2022-10-26T03:03:32;4.53;;;2.30;;
17850;SDS011;9051;51.548;14.348;2022-10-26T03:06:05;2.30;;;2.10;;
17850;SDS011;9051;51.548;14.348;2022-10-26T03:08:37;3.57;;;2.60;;
17850;SDS011;9051;51.548;14.348;2022-10-26T03:11:09;3.43;;;2.40;;
17850;SDS011;9051;51.548;14.348;2022-10-26T03:13:41;2.30;;;2.03;;
17850;SDS011;9051;51.548;14.348;2022-10-26T03:16:13;4.27;;;2.10;;
17850;SDS011;9051;51.548;14.348;2022-10-26T03:18:45;2.90;;;2.20;;
17850;SDS011;9051;51.548;14.348;2022-10-26T03:21:18;3.17;;;2.70;;
17850;SDS011;9051;51.548;14.348;2022-10-26T03:23:50;2.50;;;2.30;;
17850;SDS011;9051;51.548;14.348;2022-10-26T03:26:22;4.80;;;2.47;;
17850;SDS011;9051;51.548;14.348;2022-10-26T03:28:54;3.97;;;3.10;;
17850;SDS011;9051;51.548;14.348;2022-10-26T03:31:26;3.37;;;2.20;;
17850;SDS011;9051;51.548;14.348;2022-10-26T03:33:58;7.13;;;2.43;;
17850;SDS011;9051;51.548;14.348;2022-10-26T03:36:32;4.77;;;2.80;;
17850;SDS011;9051;51.548;14.348;2022-10-26T03:39:04;3.43;;;2.50;;
17850;SDS011;9051;51.548;14.348;2022-10-26T03:41:35;6.23;;;2.93;;
17850;SDS011;9051;51.548;14.348;2022-10-26T03:44:08;5.67;;;2.90;;
17850;SDS011;9051;51.548;14.348;2022-10-26T03:46:40;3.90;;;2.50;;
17850;SDS011;9051;51.548;14.348;2022-10-26T03:49:12;3.07;;;2.57;;
17850;SDS011;9051;51.548;14.348;2022-10-26T03:51:45;3.57;;;2.60;;
17850;SDS011;9051;51.548;14.348;2022-10-26T03:54:17;3.60;;;2.50;;
17850;SDS011;9051;51.548;14.348;2022-10-26T03:56:49;3.70;;;2.73;;
17850;SDS011;9051;51.548;14.348;2022-10-26T03:59:22;4.27;;;2.70;;
17850;SDS011;9051;51.548;14.348;2022-10-26T04:01:54;3.77;;;2.90;;
17850;SDS011;9051;51.548;14.348;2022-10-26T04:04:26;3.30;;;3.00;;
17850;SDS011;9051;51.548;14.348;2022-10-26T04:06:59;3.20;;;2.73;;
17850;SDS011;9051;51.548;14.348;2022-10-26T04:09:31;2.93;;;2.70;;
17850;SDS011;9051;51.548;14.348;2022-10-26T04:12:03;2.67;;;2.40;;
17850;SDS011;9051;51.548;14.348;2022-10-26T04:14:36;3.47;;;2.93;;
17850;SDS011;9051;51.548;14.348;2022-10-26T04:17:08;2.83;;;2.60;;
17850;SDS011;9051;51.548;14.348;2022-10-26T04:19:40;7.30;;;2.77;;
17850;SDS011;9051;51.548;14.348;2022-10-26T04:22:14;3.57;;;2.43;;
17850;SDS011;9051;51.548;14.348;2022-10-26T04:24:45;5.43;;;3.03;;
17850;SDS011;9051;51.548;14.348;2022-10-26T04:27:19;5.00;;;2.60;;
17850;SDS011;9051;51.548;14.348;2022-10-26T04:29:51;4.17;;;2.80;;
17850;SDS011;9051;51.548;14.348;2022-10-26T04:32:23;4.33;;;3.07;;
17850;SDS011;9051;51.548;14.348;2022-10-26T04:34:55;5.40;;;3.10;;
17850;SDS011;9051;51.548;14.348;2022-10-26T04:37:28;4.20;;;2.87;;
17850;SDS011;9051;51.548;14.348;2022-10-26T04:40:00;4.20;;;2.90;;
17850;SDS011;9051;51.548;14.348;2022-10-26T04:42:38;5.23;;;3.27;;
17850;SDS011;9051;51.548;14.348;2022-10-26T04:45:13;4.97;;;2.90;;
17850;SDS011;9051;51.548;14.348;2022-10-26T04:47:46;6.83;;;2.93;;
17850;SDS011;9051;51.548;14.348;2022-10-26T04:50:18;3.93;;;3.03;;
17850;SDS011;9051;51.548;14.348;2022-10-26T04:52:51;5.97;;;3.27;;
17850;SDS011;9051;51.548;14.348;2022-10-26T04:55:23;3.70;;;3.00;;
17850;SDS011;9051;51.548;14.348;2022-10-26T04:57:55;4.47;;;2.93;;
17850;SDS011;9051;51.548;14.348;2022-10-26T05:00:27;4.07;;;2.87;;
17850;SDS011;9051;51.548;14.348;2022-10-26T05:03:02;5.87;;;3.17;;
17850;SDS011;9051;51.548;14.348;2022-10-26T05:05:35;4.27;;;3.17;;
17850;SDS011;9051;51.548;14.348;2022-10-26T05:08:09;3.93;;;3.03;;
17850;SDS011;9051;51.548;14.348;2022-10-26T05:10:41;3.40;;;2.67;;
17850;SDS011;9051;51.548;14.348;2022-10-26T05:13:13;4.23;;;3.00;;
17850;SDS011;9051;51.548;14.348;2022-10-26T05:15:45;3.17;;;2.87;;
17850;SDS011;9051;51.548;14.348;2022-10-26T05:18:17;3.27;;;3.00;;
17850;SDS011;9051;51.548;14.348;2022-10-26T05:20:50;3.30;;;2.80;;
17850;SDS011;9051;51.548;14.348;2022-10-26T05:23:24;5.83;;;2.87;;
17850;SDS011;9051;51.548;14.348;2022-10-26T05:25:56;3.47;;;2.67;;
17850;SDS011;9051;51.548;14.348;2022-10-26T05:28:28;4.70;;;2.80;;
17850;SDS011;9051;51.548;14.348;2022-10-26T05:31:00;4.67;;;2.80;;
17850;SDS011;9051;51.548;14.348;2022-10-26T05:33:32;5.47;;;2.67;;
17850;SDS011;9051;51.548;14.348;2022-10-26T05:36:05;3.03;;;2.50;;
17850;SDS011;9051;51.548;14.348;2022-10-26T05:38:38;3.20;;;2.57;;
17850;SDS011;9051;51.548;14.348;2022-10-26T05:41:11;2.87;;;2.60;;
17850;SDS011;9051;51.548;14.348;2022-10-26T05:43:43;3.83;;;3.43;;
17850;SDS011;9051;51.548;14.348;2022-10-26T05:46:17;3.73;;;3.33;;
17850;SDS011;9051;51.548;14.348;2022-10-26T05:48:49;4.77;;;4.37;;
17850;SDS011;9051;51.548;14.348;2022-10-26T05:51:21;5.20;;;4.70;;
17850;SDS011;9051;51.548;14.348;2022-10-26T05:53:54;5.33;;;4.80;;
17850;SDS011;9051;51.548;14.348;2022-10-26T05:56:32;4.87;;;4.30;;
17850;SDS011;9051;51.548;14.348;2022-10-26T05:59:09;4.40;;;3.80;;
17850;SDS011;9051;51.548;14.348;2022-10-26T06:01:51;6.03;;;4.00;;
17850;SDS011;9051;51.548;14.348;2022-10-26T06:04:35;5.57;;;3.93;;
17850;SDS011;9051;51.548;14.348;2022-10-26T06:07:09;5.73;;;3.50;;
17850;SDS011;9051;51.548;14.348;2022-10-26T06:09:45;5.20;;;3.87;;
17850;SDS011;9051;51.548;14.348;2022-10-26T06:12:18;5.50;;;3.80;;
17850;SDS011;9051;51.548;14.348;2022-10-26T06:14:50;4.13;;;3.57;;
17850;SDS011;9051;51.548;14.348;2022-10-26T06:17:27;4.00;;;3.60;;
17850;SDS011;9051;51.548;14.348;2022-10-26T06:20:13;4.37;;;3.67;;
17850;SDS011;9051;51.548;14.348;2022-10-26T06:23:06;3.70;;;3.30;;
17850;SDS011;9051;51.548;14.348;2022-10-26T06:25:50;6.17;;;4.63;;
17850;SDS011;9051;51.548;14.348;2022-10-26T06:28:30;5.90;;;4.13;;
17850;SDS011;9051;51.548;14.348;2022-10-26T06:31:10;5.13;;;4.13;;
17850;SDS011;9051;51.548;14.348;2022-10-26T06:33:44;5.07;;;4.57;;
17850;SDS011;9051;51.548;14.348;2022-10-26T06:36:19;8.57;;;4.73;;
17850;SDS011;9051;51.548;14.348;2022-10-26T06:38:53;5.47;;;4.13;;
17850;SDS011;9051;51.548;14.348;2022-10-26T06:41:31;7.90;;;4.63;;
17850;SDS011;9051;51.548;14.348;2022-10-26T06:44:05;5.93;;;4.40;;
17850;SDS011;9051;51.548;14.348;2022-10-26T06:46:44;4.97;;;3.70;;
17850;SDS011;9051;51.548;14.348;2022-10-26T06:49:20;6.73;;;4.53;;
17850;SDS011;9051;51.548;14.348;2022-10-26T06:51:58;7.23;;;4.47;;
17850;SDS011;9051;51.548;14.348;2022-10-26T06:54:38;6.87;;;4.90;;
17850;SDS011;9051;51.548;14.348;2022-10-26T06:57:19;7.10;;;4.50;;
17850;SDS011;9051;51.548;14.348;2022-10-26T06:59:52;4.97;;;4.00;;
17850;SDS011;9051;51.548;14.348;2022-10-26T07:02:27;4.43;;;3.80;;
17850;SDS011;9051;51.548;14.348;2022-10-26T07:04:59;5.17;;;3.87;;
17850;SDS011;9051;51.548;14.348;2022-10-26T07:07:39;4.63;;;4.13;;
17850;SDS011;9051;51.548;14.348;2022-10-26T07:10:13;4.53;;;4.13;;
17850;SDS011;9051;51.548;14.348;2022-10-26T07:12:47;6.57;;;4.40;;
17850;SDS011;9051;51.548;14.348;2022-10-26T07:15:19;4.43;;;4.03;;
17850;SDS011;9051;51.548;14.348;2022-10-26T07:17:51;5.37;;;4.00;;
17850;SDS011;9051;51.548;14.348;2022-10-26T07:20:23;6.60;;;4.50;;
17850;SDS011;9051;51.548;14.348;2022-10-26T07:22:55;5.40;;;4.20;;
17850;SDS011;9051;51.548;14.348;2022-10-26T07:25:27;6.50;;;4.30;;
17850;SDS011;9051;51.548;14.348;2022-10-26T07:28:00;5.27;;;4.50;;
17850;SDS011;9051;51.548;14.348;2022-10-26T07:30:32;6.23;;;4.10;;
17850;SDS011;9051;51.548;14.348;2022-10-26T07:33:05;6.23;;;4.57;;
17850;SDS011;9051;51.548;14.348;2022-10-26T07:35:39;6.23;;;3.93;;
17850;SDS011;9051;51.548;14.348;2022-10-26T07:38:11;7.73;;;4.33;;
17850;SDS011;9051;51.548;14.348;2022-10-26T07:40:44;5.97;;;4.27;;
17850;SDS011;9051;51.548;14.348;2022-10-26T07:43:17;5.27;;;4.20;;
17850;SDS011;9051;51.548;14.348;2022-10-26T07:45:49;7.10;;;4.03;;
17850;SDS011;9051;51.548;14.348;2022-10-26T07:48:21;4.33;;;3.90;;
17850;SDS011;9051;51.548;14.348;2022-10-26T07:50:53;5.10;;;3.87;;
17850;SDS011;9051;51.548;14.348;2022-10-26T07:53:25;4.73;;;4.23;;
17850;SDS011;9051;51.548;14.348;2022-10-26T07:55:57;6.70;;;4.40;;
17850;SDS011;9051;51.548;14.348;2022-10-26T07:58:30;4.00;;;3.67;;
17850;SDS011;9051;51.548;14.348;2022-10-26T08:01:05;5.17;;;3.90;;
17850;SDS011;9051;51.548;14.348;2022-10-26T08:03:38;7.90;;;4.30;;
17850;SDS011;9051;51.548;14.348;2022-10-26T08:06:10;6.80;;;4.40;;
17850;SDS011;9051;51.548;14.348;2022-10-26T08:08:42;5.90;;;4.60;;
17850;SDS011;9051;51.548;14.348;2022-10-26T08:11:16;8.30;;;5.20;;
17850;SDS011;9051;51.548;14.348;2022-10-26T08:13:51;12.10;;;6.17;;
17850;SDS011;9051;51.548;14.348;2022-10-26T08:16:24;8.67;;;5.40;;
17850;SDS011;9051;51.548;14.348;2022-10-26T08:18:56;9.37;;;5.53;;
17850;SDS011;9051;51.548;14.348;2022-10-26T08:21:28;10.17;;;5.87;;
17850;SDS011;9051;51.548;14.348;2022-10-26T08:24:00;12.33;;;5.20;;
17850;SDS011;9051;51.548;14.348;2022-10-26T08:26:32;9.33;;;5.67;;
17850;SDS011;9051;51.548;14.348;2022-10-26T08:29:06;13.10;;;5.27;;
17850;SDS011;9051;51.548;14.348;2022-10-26T08:31:38;10.17;;;5.93;;
17850;SDS011;9051;51.548;14.348;2022-10-26T08:34:10;9.57;;;5.00;;
17850;SDS011;9051;51.548;14.348;2022-10-26T08:36:42;11.07;;;5.60;;
17850;SDS011;9051;51.548;14.348;2022-10-26T08:39:14;9.07;;;5.90;;
17850;SDS011;9051;51.548;14.348;2022-10-26T08:41:46;11.67;;;5.23;;
17850;SDS011;9051;51.548;14.348;2022-10-26T08:44:26;13.73;;;5.63;;
17850;SDS011;9051;51.548;14.348;2022-10-26T08:47:04;10.07;;;5.00;;
17850;SDS011;9051;51.548;14.348;2022-10-26T08:49:43;7.80;;;5.13;;
17850;SDS011;9051;51.548;14.348;2022-10-26T08:52:22;8.60;;;5.37;;
17850;SDS011;9051;51.548;14.348;2022-10-26T08:55:00;8.13;;;5.63;;
17850;SDS011;9051;51.548;14.348;2022-10-26T08:57:34;7.07;;;5.13;;
17850;SDS011;9051;51.548;14.348;2022-10-26T09:00:14;6.50;;;4.60;;
17850;SDS011;9051;51.548;14.348;2022-10-26T09:02:49;10.13;;;5.17;;
17850;SDS011;9051;51.548;14.348;2022-10-26T09:05:22;7.87;;;5.23;;
17850;SDS011;9051;51.548;14.348;2022-10-26T09:07:59;10.50;;;5.80;;
17850;SDS011;9051;51.548;14.348;2022-10-26T09:10:40;8.53;;;5.63;;
17850;SDS011;9051;51.548;14.348;2022-10-26T09:13:24;13.43;;;6.17;;
17850;SDS011;9051;51.548;14.348;2022-10-26T09:16:08;8.33;;;5.23;;
17850;SDS011;9051;51.548;14.348;2022-10-26T09:18:51;17.00;;;5.57;;
17850;SDS011;9051;51.548;14.348;2022-10-26T09:21:34;9.87;;;5.90;;
17850;SDS011;9051;51.548;14.348;2022-10-26T09:24:14;11.40;;;5.73;;
17850;SDS011;9051;51.548;14.348;2022-10-26T09:26:53;10.53;;;5.37;;
17850;SDS011;9051;51.548;14.348;2022-10-26T09:29:30;8.57;;;4.20;;
17850;SDS011;9051;51.548;14.348;2022-10-26T09:32:09;8.97;;;4.40;;
17850;SDS011;9051;51.548;14.348;2022-10-26T09:34:47;9.70;;;3.80;;
17850;SDS011;9051;51.548;14.348;2022-10-26T09:37:23;6.67;;;4.17;;
17850;SDS011;9051;51.548;14.348;2022-10-26T09:39:59;8.30;;;3.60;;
17850;SDS011;9051;51.548;14.348;2022-10-26T09:42:40;5.90;;;3.60;;
17850;SDS011;9051;51.548;14.348;2022-10-26T09:45:16;7.97;;;3.73;;
17850;SDS011;9051;51.548;14.348;2022-10-26T09:47:55;6.37;;;3.93;;
17850;SDS011;9051;51.548;14.348;2022-10-26T09:50:32;6.30;;;3.67;;
17850;SDS011;9051;51.548;14.348;2022-10-26T09:53:05;7.67;;;3.67;;
17850;SDS011;9051;51.548;14.348;2022-10-26T09:55:38;6.23;;;3.30;;
17850;SDS011;9051;51.548;14.348;2022-10-26T09:58:13;12.70;;;4.33;;
17850;SDS011;9051;51.548;14.348;2022-10-26T10:00:48;7.07;;;3.90;;
17850;SDS011;9051;51.548;14.348;2022-10-26T10:03:27;7.73;;;3.70;;
17850;SDS011;9051;51.548;14.348;2022-10-26T10:06:14;5.67;;;3.30;;
17850;SDS011;9051;51.548;14.348;2022-10-26T10:09:03;4.77;;;3.40;;
17850;SDS011;9051;51.548;14.348;2022-10-26T10:11:39;6.57;;;3.33;;
17850;SDS011;9051;51.548;14.348;2022-10-26T10:14:14;6.90;;;3.30;;
17850;SDS011;9051;51.548;14.348;2022-10-26T10:16:48;7.20;;;3.30;;
17850;SDS011;9051;51.548;14.348;2022-10-26T10:19:25;7.27;;;3.30;;
17850;SDS011;9051;51.548;14.348;2022-10-26T10:21:59;7.60;;;3.57;;
17850;SDS011;9051;51.548;14.348;2022-10-26T10:24:39;4.30;;;3.07;;
17850;SDS011;9051;51.548;14.348;2022-10-26T10:27:15;9.20;;;3.57;;
17850;SDS011;9051;51.548;14.348;2022-10-26T10:29:48;4.80;;;3.20;;
17850;SDS011;9051;51.548;14.348;2022-10-26T10:32:22;6.20;;;3.27;;
17850;SDS011;9051;51.548;14.348;2022-10-26T10:34:57;7.07;;;3.00;;
17850;SDS011;9051;51.548;14.348;2022-10-26T10:37:31;6.70;;;3.40;;
17850;SDS011;9051;51.548;14.348;2022-10-26T10:40:08;6.53;;;3.00;;
17850;SDS011;9051;51.548;14.348;2022-10-26T10:42:45;5.63;;;2.90;;
17850;SDS011;9051;51.548;14.348;2022-10-26T10:45:18;5.47;;;3.10;;
17850;SDS011;9051;51.548;14.348;2022-10-26T10:47:57;5.93;;;3.37;;
17850;SDS011;9051;51.548;14.348;2022-10-26T10:50:33;4.27;;;2.87;;
17850;SDS011;9051;51.548;14.348;2022-10-26T10:53:13;8.03;;;2.93;;
17850;SDS011;9051;51.548;14.348;2022-10-26T10:58:47;4.23;;;2.90;;
17850;SDS011;9051;51.548;14.348;2022-10-26T11:01:29;7.23;;;2.77;;
17850;SDS011;9051;51.548;14.348;2022-10-26T11:04:11;4.97;;;2.70;;
17850;SDS011;9051;51.548;14.348;2022-10-26T11:07:01;5.13;;;2.90;;
17850;SDS011;9051;51.548;14.348;2022-10-26T11:09:38;5.67;;;3.23;;
17850;SDS011;9051;51.548;14.348;2022-10-26T11:12:14;4.27;;;2.70;;
17850;SDS011;9051;51.548;14.348;2022-10-26T11:14:51;3.97;;;2.53;;
17850;SDS011;9051;51.548;14.348;2022-10-26T11:17:29;4.50;;;2.80;;
17850;SDS011;9051;51.548;14.348;2022-10-26T11:20:04;4.07;;;2.80;;
17850;SDS011;9051;51.548;14.348;2022-10-26T11:22:52;4.53;;;2.60;;
17850;SDS011;9051;51.548;14.348;2022-10-26T11:25:33;6.47;;;3.00;;
17850;SDS011;9051;51.548;14.348;2022-10-26T11:28:10;5.27;;;2.93;;
17850;SDS011;9051;51.548;14.348;2022-10-26T11:30:46;6.50;;;2.97;;
17850;SDS011;9051;51.548;14.348;2022-10-26T11:33:22;5.03;;;3.13;;
17850;SDS011;9051;51.548;14.348;2022-10-26T11:35:57;9.10;;;3.20;;
17850;SDS011;9051;51.548;14.348;2022-10-26T11:38:37;5.73;;;3.03;;
17850;SDS011;9051;51.548;14.348;2022-10-26T11:41:16;3.73;;;2.73;;
17850;SDS011;9051;51.548;14.348;2022-10-26T11:43:53;3.93;;;2.70;;
17850;SDS011;9051;51.548;14.348;2022-10-26T11:46:33;4.27;;;3.10;;
17850;SDS011;9051;51.548;14.348;2022-10-26T11:49:10;3.80;;;2.73;;
17850;SDS011;9051;51.548;14.348;2022-10-26T11:51:47;5.10;;;3.07;;
17850;SDS011;9051;51.548;14.348;2022-10-26T11:54:31;5.10;;;3.30;;
17850;SDS011;9051;51.548;14.348;2022-10-26T11:57:06;5.53;;;3.23;;
17850;SDS011;9051;51.548;14.348;2022-10-26T11:59:38;3.40;;;2.80;;
17850;SDS011;9051;51.548;14.348;2022-10-26T12:02:14;5.43;;;3.07;;
17850;SDS011;9051;51.548;14.348;2022-10-26T12:04:51;8.17;;;3.33;;
17850;SDS011;9051;51.548;14.348;2022-10-26T12:07:26;4.20;;;3.30;;
17850;SDS011;9051;51.548;14.348;2022-10-26T12:10:03;6.13;;;3.70;;
17850;SDS011;9051;51.548;14.348;2022-10-26T12:12:43;5.67;;;3.50;;
17850;SDS011;9051;51.548;14.348;2022-10-26T12:15:20;6.40;;;3.70;;
17850;SDS011;9051;51.548;14.348;2022-10-26T12:17:59;5.27;;;3.47;;
17850;SDS011;9051;51.548;14.348;2022-10-26T12:20:52;4.80;;;3.53;;
17850;SDS011;9051;51.548;14.348;2022-10-26T12:23:32;4.47;;;2.80;;
17850;SDS011;9051;51.548;14.348;2022-10-26T12:29:27;3.40;;;2.90;;
17850;SDS011;9051;51.548;14.348;2022-10-26T12:35:32;7.47;;;4.00;;
17850;SDS011;9051;51.548;14.348;2022-10-26T12:41:20;10.07;;;4.70;;
17850;SDS011;9051;51.548;14.348;2022-10-26T12:43:56;9.37;;;4.10;;
17850;SDS011;9051;51.548;14.348;2022-10-26T12:58:48;6.75;;;3.30;;
17850;SDS011;9051;51.548;14.348;2022-10-26T13:01:38;7.10;;;3.22;;
17850;SDS011;9051;51.548;14.348;2022-10-26T13:04:40;7.60;;;3.67;;
17850;SDS011;9051;51.548;14.348;2022-10-26T13:07:33;9.88;;;3.78;;
17850;SDS011;9051;51.548;14.348;2022-10-26T13:10:16;4.68;;;2.80;;
17850;SDS011;9051;51.548;14.348;2022-10-26T13:12:52;6.38;;;3.53;;
17850;SDS011;9051;51.548;14.348;2022-10-26T13:15:30;5.03;;;2.83;;
17850;SDS011;9051;51.548;14.348;2022-10-26T13:18:09;7.93;;;3.97;;
17850;SDS011;9051;51.548;14.348;2022-10-26T13:20:51;5.93;;;2.88;;
17850;SDS011;9051;51.548;14.348;2022-10-26T13:23:30;6.47;;;2.50;;
17850;SDS011;9051;51.548;14.348;2022-10-26T13:26:07;4.07;;;2.40;;
17850;SDS011;9051;51.548;14.348;2022-10-26T13:28:48;2.67;;;1.90;;
17850;SDS011;9051;51.548;14.348;2022-10-26T13:34:29;3.65;;;2.17;;
17850;SDS011;9051;51.548;14.348;2022-10-26T13:37:04;3.05;;;2.13;;
17850;SDS011;9051;51.548;14.348;2022-10-26T13:39:44;3.67;;;1.95;;
17850;SDS011;9051;51.548;14.348;2022-10-26T13:42:19;3.85;;;2.20;;
17850;SDS011;9051;51.548;14.348;2022-10-26T13:44:55;3.53;;;2.10;;
17850;SDS011;9051;51.548;14.348;2022-10-26T13:47:33;2.65;;;1.90;;
17850;SDS011;9051;51.548;14.348;2022-10-26T13:50:13;2.92;;;2.20;;
17850;SDS011;9051;51.548;14.348;2022-10-26T13:52:48;3.15;;;2.28;;
17850;SDS011;9051;51.548;14.348;2022-10-26T13:55:23;3.60;;;2.03;;
17850;SDS011;9051;51.548;14.348;2022-10-26T13:58:02;4.22;;;2.35;;
17850;SDS011;9051;51.548;14.348;2022-10-26T14:01:11;6.50;;;2.20;;
17850;SDS011;9051;51.548;14.348;2022-10-26T14:03:45;4.05;;;2.10;;
17850;SDS011;9051;51.548;14.348;2022-10-26T14:06:22;6.45;;;1.90;;
17850;SDS011;9051;51.548;14.348;2022-10-26T14:08:59;5.15;;;2.22;;
17850;SDS011;9051;51.548;14.348;2022-10-26T14:11:33;3.45;;;2.10;;
17850;SDS011;9051;51.548;14.348;2022-10-26T14:14:10;3.63;;;2.22;;
17850;SDS011;9051;51.548;14.348;2022-10-26T14:16:47;5.15;;;2.42;;
17850;SDS011;9051;51.548;14.348;2022-10-26T14:19:21;2.93;;;2.30;;
17850;SDS011;9051;51.548;14.348;2022-10-26T14:21:59;3.88;;;2.30;;
17850;SDS011;9051;51.548;14.348;2022-10-26T14:24:33;3.33;;;2.03;;
17850;SDS011;9051;51.548;14.348;2022-10-26T14:27:13;6.78;;;2.20;;
17850;SDS011;9051;51.548;14.348;2022-10-26T14:29:47;3.10;;;2.20;;
17850;SDS011;9051;51.548;14.348;2022-10-26T14:32:20;4.80;;;2.40;;
17850;SDS011;9051;51.548;14.348;2022-10-26T14:34:53;3.73;;;2.53;;
17850;SDS011;9051;51.548;14.348;2022-10-26T14:37:34;3.13;;;2.23;;
17850;SDS011;9051;51.548;14.348;2022-10-26T14:40:12;2.90;;;2.30;;
17850;SDS011;9051;51.548;14.348;2022-10-26T14:42:47;5.17;;;2.20;;
17850;SDS011;9051;51.548;14.348;2022-10-26T14:45:24;4.40;;;2.30;;
17850;SDS011;9051;51.548;14.348;2022-10-26T14:48:01;2.33;;;2.10;;
17850;SDS011;9051;51.548;14.348;2022-10-26T14:50:35;3.10;;;2.07;;
17850;SDS011;9051;51.548;14.348;2022-10-26T14:53:13;3.00;;;2.30;;
17850;SDS011;9051;51.548;14.348;2022-10-26T14:55:47;5.25;;;2.17;;
17850;SDS011;9051;51.548;14.348;2022-10-26T14:58:21;4.20;;;2.25;;
17850;SDS011;9051;51.548;14.348;2022-10-26T15:01:15;3.27;;;2.10;;
17850;SDS011;9051;51.548;14.348;2022-10-26T15:03:59;3.63;;;2.00;;
17850;SDS011;9051;51.548;14.348;2022-10-26T15:06:38;2.77;;;2.40;;
17850;SDS011;9051;51.548;14.348;2022-10-26T15:09:37;4.07;;;2.60;;
17850;SDS011;9051;51.548;14.348;2022-10-26T15:12:18;3.83;;;2.57;;
17850;SDS011;9051;51.548;14.348;2022-10-26T15:15:07;4.30;;;2.40;;
17850;SDS011;9051;51.548;14.348;2022-10-26T15:17:48;3.13;;;2.50;;
17850;SDS011;9051;51.548;14.348;2022-10-26T15:20:22;4.13;;;2.73;;
17850;SDS011;9051;51.548;14.348;2022-10-26T15:22:56;5.20;;;2.70;;
17850;SDS011;9051;51.548;14.348;2022-10-26T15:25:32;3.83;;;2.33;;
17850;SDS011;9051;51.548;14.348;2022-10-26T15:28:09;4.77;;;2.33;;
17850;SDS011;9051;51.548;14.348;2022-10-26T15:30:41;3.40;;;2.67;;
17850;SDS011;9051;51.548;14.348;2022-10-26T15:33:30;4.13;;;2.70;;
17850;SDS011;9051;51.548;14.348;2022-10-26T15:36:08;4.43;;;2.67;;
17850;SDS011;9051;51.548;14.348;2022-10-26T15:38:43;4.77;;;2.60;;
17850;SDS011;9051;51.548;14.348;2022-10-26T15:41:19;5.37;;;2.83;;
17850;SDS011;9051;51.548;14.348;2022-10-26T15:43:53;6.07;;;3.17;;
17850;SDS011;9051;51.548;14.348;2022-10-26T15:46:28;4.23;;;2.83;;
17850;SDS011;9051;51.548;14.348;2022-10-26T15:49:02;3.40;;;2.60;;
17850;SDS011;9051;51.548;14.348;2022-10-26T15:51:36;10.83;;;3.80;;
17850;SDS011;9051;51.548;14.348;2022-10-26T15:54:08;4.60;;;2.83;;
17850;SDS011;9051;51.548;14.348;2022-10-26T15:56:43;4.87;;;3.13;;
17850;SDS011;9051;51.548;14.348;2022-10-26T15:59:15;4.20;;;3.13;;
17850;SDS011;9051;51.548;14.348;2022-10-26T16:01:48;5.57;;;3.43;;
17850;SDS011;9051;51.548;14.348;2022-10-26T16:04:21;7.37;;;3.80;;
17850;SDS011;9051;51.548;14.348;2022-10-26T16:06:53;6.70;;;3.63;;
17850;SDS011;9051;51.548;14.348;2022-10-26T16:09:30;4.83;;;3.60;;